Time;durP1;ratioP1;P1;durP2;ratioP2;P2;SDS_P1;SDS_P2;PMS_P1;PMS_P2;Temp;Humidity;BMP_temperature;BMP_pressure;BME280_temperature;BME280_humidity;BME280_pressure;Samples;Min_cycle;Max_cycle;Signal;HPM_P1;HPM_P2
2021/08/03 00:00:26;;;;;;;12.70;8.13;;;12.50;99.90;;;;;;5070842;28;20552;-65
2021/08/03 00:02:57;;;;;;;10.03;7.97;;;12.40;99.90;;;;;;5071895;28;20925;-64
2021/08/03 00:05:27;;;;;;;9.47;7.97;;;12.30;99.90;;;;;;5071689;28;20470;-64
2021/08/03 00:08:00;;;;;;;10.60;8.90;;;12.30;99.90;;;;;;5071958;28;20476;-64
2021/08/03 00:10:27;;;;;;;9.93;9.03;;;12.30;99.90;;;;;;5071265;28;20824;-64
2021/08/03 00:12:54;;;;;;;9.97;9.07;;;12.30;99.90;;;;;;5072041;28;20447;-64
2021/08/03 00:15:24;;;;;;;10.53;8.40;;;12.30;99.90;;;;;;5071946;28;20447;-65
2021/08/03 00:17:54;;;;;;;9.23;8.30;;;12.30;99.90;;;;;;5071826;28;20447;-64
2021/08/03 00:20:22;;;;;;;11.67;9.50;;;12.30;99.90;;;;;;5071585;28;20522;-64
2021/08/03 00:22:49;;;;;;;8.90;8.00;;;12.30;99.90;;;;;;5071501;28;20446;-64
2021/08/03 00:25:16;;;;;;;11.33;10.33;;;12.30;99.90;;;;;;5071468;28;20938;-64
2021/08/03 00:27:43;;;;;;;11.43;10.03;;;12.30;99.90;;;;;;5072242;28;20447;-63
2021/08/03 00:30:11;;;;;;;10.03;9.13;;;12.30;99.90;;;;;;5071221;28;20466;-64
2021/08/03 00:32:39;;;;;;;9.87;8.97;;;12.30;99.90;;;;;;5071140;28;20451;-64
2021/08/03 00:35:07;;;;;;;13.20;10.43;;;12.30;99.90;;;;;;5072003;28;20448;-64
2021/08/03 00:37:35;;;;;;;14.70;13.10;;;12.30;99.90;;;;;;5064268;28;20439;-64
2021/08/03 00:40:01;;;;;;;10.27;9.23;;;12.30;99.90;;;;;;5071472;28;20487;-63
2021/08/03 00:42:30;;;;;;;9.77;8.77;;;12.40;99.90;;;;;;5070732;28;20451;-64
2021/08/03 00:44:56;;;;;;;13.57;9.93;;;12.30;99.90;;;;;;5071528;28;20447;-64
2021/08/03 00:47:23;;;;;;;16.20;10.33;;;12.30;99.90;;;;;;5071288;28;20442;-64
2021/08/03 00:49:51;;;;;;;11.20;10.07;;;12.30;99.90;;;;;;5071264;28;20888;-64
2021/08/03 00:52:18;;;;;;;11.37;9.80;;;12.30;99.90;;;;;;5070918;28;20823;-64
2021/08/03 00:54:45;;;;;;;12.20;11.00;;;12.30;99.90;;;;;;5071489;28;20451;-64
2021/08/03 00:57:14;;;;;;;12.43;10.30;;;12.40;99.90;;;;;;5071358;28;20443;-63
2021/08/03 00:59:40;;;;;;;15.27;10.97;;;12.40;99.90;;;;;;5071712;28;20885;-65
2021/08/03 01:02:08;;;;;;;13.90;10.87;;;12.40;99.90;;;;;;5071429;28;20447;-64
2021/08/03 01:04:35;;;;;;;15.33;10.00;;;12.40;99.90;;;;;;5071389;28;20447;-64
2021/08/03 01:07:10;;;;;;;12.03;10.63;;;12.40;99.90;;;;;;5071563;28;20444;-64
2021/08/03 01:09:50;;;;;;;13.47;12.13;;;12.40;99.90;;;;;;5064526;28;20454;-64
2021/08/03 01:12:28;;;;;;;14.33;12.83;;;12.50;99.90;;;;;;5074946;28;20450;-64
2021/08/03 01:15:01;;;;;;;13.80;10.93;;;12.50;99.90;;;;;;5075544;28;20469;-64
2021/08/03 01:17:34;;;;;;;15.13;11.57;;;12.50;99.90;;;;;;5074848;28;20950;-64
2021/08/03 01:20:08;;;;;;;15.00;10.70;;;12.50;99.90;;;;;;5074953;28;20899;-64
2021/08/03 01:23:00;;;;;;;10.73;9.73;;;12.50;99.90;;;;;;5067592;28;20921;-64
2021/08/03 01:25:36;;;;;;;12.23;10.90;;;12.60;99.90;;;;;;5074260;28;20443;-64
2021/08/03 01:28:12;;;;;;;11.70;10.47;;;12.60;99.90;;;;;;5074757;28;20504;-64
2021/08/03 01:30:42;;;;;;;11.27;10.13;;;12.70;99.90;;;;;;5068335;28;20473;-65
2021/08/03 01:33:10;;;;;;;13.77;11.13;;;12.70;99.90;;;;;;5075817;28;20447;-64
2021/08/03 01:35:41;;;;;;;12.37;11.20;;;12.70;99.90;;;;;;5075799;28;20443;-64
2021/08/03 01:38:08;;;;;;;12.93;10.60;;;12.70;99.90;;;;;;5076683;28;20443;-65
2021/08/03 01:40:37;;;;;;;12.20;9.77;;;12.70;99.90;;;;;;5076994;28;20988;-65
2021/08/03 01:43:06;;;;;;;15.47;13.90;;;12.80;99.90;;;;;;5076188;28;20810;-66
2021/08/03 01:45:36;;;;;;;12.20;11.00;;;12.80;99.90;;;;;;5075874;28;20949;-65
2021/08/03 01:48:02;;;;;;;12.47;10.23;;;12.80;99.90;;;;;;5076730;28;20443;-65
2021/08/03 01:50:30;;;;;;;15.60;12.13;;;12.90;99.90;;;;;;5076450;28;20455;-65
2021/08/03 01:52:59;;;;;;;12.30;10.13;;;12.90;99.90;;;;;;5075964;28;20445;-66
2021/08/03 01:55:26;;;;;;;12.53;10.77;;;13.00;99.90;;;;;;5076292;28;20447;-65
2021/08/03 01:57:53;;;;;;;14.33;9.80;;;13.00;99.90;;;;;;5076142;28;20451;-64
2021/08/03 02:00:21;;;;;;;10.97;9.57;;;13.00;99.90;;;;;;5075548;28;20482;-64
2021/08/03 02:02:50;;;;;;;14.30;11.50;;;13.10;99.90;;;;;;5075257;28;20440;-65
2021/08/03 02:05:17;;;;;;;10.90;10.00;;;13.10;99.90;;;;;;5075799;28;20439;-64
2021/08/03 02:07:45;;;;;;;11.67;10.50;;;13.10;99.90;;;;;;5075305;28;20439;-64
2021/08/03 02:10:13;;;;;;;12.40;10.73;;;13.10;99.90;;;;;;5074418;28;21008;-64
2021/08/03 02:12:40;;;;;;;13.63;10.67;;;13.20;99.90;;;;;;5074445;28;20850;-64
2021/08/03 02:15:08;;;;;;;11.80;10.60;;;13.20;99.90;;;;;;5074878;28;20451;-64
2021/08/03 02:17:35;;;;;;;12.03;10.83;;;13.20;99.90;;;;;;5075260;28;20965;-64
2021/08/03 02:20:05;;;;;;;10.37;9.30;;;13.30;99.90;;;;;;5074955;28;20562;-65
2021/08/03 02:22:32;;;;;;;12.40;10.83;;;13.30;99.90;;;;;;5066147;28;20471;-65
2021/08/03 02:24:59;;;;;;;12.67;10.57;;;13.30;99.90;;;;;;5074664;28;20443;-65
2021/08/03 02:27:26;;;;;;;12.10;10.90;;;13.40;99.90;;;;;;5074592;28;20811;-65
2021/08/03 02:29:53;;;;;;;11.53;10.33;;;13.40;99.90;;;;;;5074743;28;20502;-64
2021/08/03 02:32:25;;;;;;;10.53;9.47;;;13.40;99.90;;;;;;5074747;28;20452;-64
2021/08/03 02:34:56;;;;;;;12.13;10.90;;;13.50;99.90;;;;;;5074709;28;20945;-64
2021/08/03 02:37:31;;;;;;;11.53;9.23;;;13.50;99.90;;;;;;5074549;28;20451;-63
2021/08/03 02:40:00;;;;;;;13.90;10.57;;;13.50;99.90;;;;;;5074331;28;20526;-64
2021/08/03 02:42:28;;;;;;;11.80;10.23;;;13.50;99.90;;;;;;5074332;28;20443;-64
2021/08/03 02:45:00;;;;;;;13.10;9.47;;;13.50;99.90;;;;;;5074498;28;20447;-64
2021/08/03 02:47:30;;;;;;;12.30;11.10;;;13.50;99.90;;;;;;5074543;28;20958;-64
2021/08/03 02:50:06;;;;;;;10.20;9.20;;;13.60;99.90;;;;;;5074772;28;20903;-64
2021/08/03 02:52:37;;;;;;;9.93;9.03;;;13.60;99.90;;;;;;5074443;28;20447;-64
2021/08/03 02:55:10;;;;;;;12.23;10.93;;;13.70;99.90;;;;;;5074222;28;20500;-65
2021/08/03 02:57:38;;;;;;;10.30;9.40;;;13.80;99.90;;;;;;5074047;28;20959;-64
2021/08/03 03:00:07;;;;;;;14.00;9.97;;;13.80;99.90;;;;;;5074143;28;20491;-64
2021/08/03 03:02:37;;;;;;;12.20;11.07;;;13.80;99.90;;;;;;5073844;28;20444;-64
2021/08/03 03:05:08;;;;;;;12.70;11.40;;;13.80;99.90;;;;;;5072736;28;20474;-64
2021/08/03 03:07:40;;;;;;;13.60;10.93;;;13.80;99.90;;;;;;5072559;28;20444;-65
2021/08/03 03:10:13;;;;;;;18.17;16.40;;;13.80;99.90;;;;;;5072814;28;20466;-65
2021/08/03 03:12:44;;;;;;;13.70;12.50;;;13.80;99.90;;;;;;5072353;28;20471;-64
2021/08/03 03:15:15;;;;;;;14.73;11.43;;;13.90;99.90;;;;;;5072764;28;20443;-64
2021/08/03 03:17:42;;;;;;;12.40;10.87;;;13.80;99.90;;;;;;5072588;28;20455;-64
2021/08/03 03:20:10;;;;;;;13.47;12.10;;;13.80;99.90;;;;;;5072425;28;20479;-64
2021/08/03 03:22:42;;;;;;;13.53;11.83;;;13.90;99.90;;;;;;5071237;28;20444;-64
2021/08/03 03:25:11;;;;;;;12.27;10.77;;;13.90;99.90;;;;;;5071610;28;20447;-64
2021/08/03 03:27:39;;;;;;;13.97;12.13;;;13.90;99.90;;;;;;5071907;28;20899;-65
2021/08/03 03:30:08;;;;;;;14.17;12.70;;;13.90;99.90;;;;;;5071885;28;20467;-65
2021/08/03 03:32:36;;;;;;;13.57;12.37;;;13.90;99.90;;;;;;5071607;28;20451;-64
2021/08/03 03:35:03;;;;;;;14.33;11.40;;;13.90;99.90;;;;;;5071703;28;20440;-64
2021/08/03 03:37:31;;;;;;;17.70;15.07;;;13.90;99.90;;;;;;5071560;28;20439;-65
2021/08/03 03:39:59;;;;;;;15.83;14.10;;;13.80;99.90;;;;;;5071949;28;20483;-64
2021/08/03 03:42:31;;;;;;;14.70;13.20;;;13.80;99.90;;;;;;5071461;28;20463;-63
2021/08/03 03:44:59;;;;;;;18.20;15.10;;;13.80;99.90;;;;;;5071649;28;20870;-65
2021/08/03 03:47:30;;;;;;;16.83;14.93;;;13.90;99.90;;;;;;5071408;28;20810;-65
2021/08/03 03:50:02;;;;;;;17.17;15.47;;;13.90;99.90;;;;;;5071466;28;20521;-64
2021/08/03 03:52:35;;;;;;;15.50;13.90;;;13.90;99.90;;;;;;5071041;28;20467;-64
2021/08/03 03:55:05;;;;;;;15.80;14.20;;;13.90;99.90;;;;;;5070964;28;20447;-65
2021/08/03 03:57:32;;;;;;;14.67;12.73;;;13.90;99.90;;;;;;5063530;28;20454;-65
2021/08/03 04:00:00;;;;;;;16.17;14.57;;;13.90;99.90;;;;;;5071359;28;20475;-65
2021/08/03 04:02:29;;;;;;;20.83;16.63;;;13.90;99.90;;;;;;5070976;28;20450;-64
2021/08/03 04:04:59;;;;;;;18.80;16.97;;;14.00;99.90;;;;;;5071365;28;20442;-65
2021/08/03 04:07:26;;;;;;;17.57;15.57;;;13.90;99.90;;;;;;5071342;28;20451;-65
2021/08/03 04:10:03;;;;;;;16.97;15.30;;;14.00;99.90;;;;;;5071050;28;20826;-65
2021/08/03 04:12:30;;;;;;;16.10;14.30;;;14.00;99.90;;;;;;5070826;28;20892;-65
2021/08/03 04:14:57;;;;;;;18.20;14.63;;;14.00;99.90;;;;;;5071268;28;20439;-65
2021/08/03 04:17:23;;;;;;;16.47;13.93;;;14.00;99.90;;;;;;5070746;28;20485;-64
2021/08/03 04:19:50;;;;;;;16.90;15.17;;;14.00;99.90;;;;;;5071030;28;20459;-65
2021/08/03 04:22:17;;;;;;;16.50;14.80;;;14.00;99.90;;;;;;5070546;28;20443;-65
2021/08/03 04:24:44;;;;;;;18.07;16.17;;;14.00;99.90;;;;;;5071630;28;20782;-65
2021/08/03 04:27:12;;;;;;;18.40;14.53;;;14.00;99.90;;;;;;5071408;28;20454;-65
2021/08/03 04:29:38;;;;;;;18.67;16.67;;;14.10;99.90;;;;;;5071134;28;20471;-65
2021/08/03 04:32:06;;;;;;;17.83;16.13;;;14.10;99.90;;;;;;5071242;28;20439;-65
2021/08/03 04:34:33;;;;;;;15.30;13.50;;;14.20;99.90;;;;;;5071466;28;20486;-64
2021/08/03 04:37:01;;;;;;;17.80;14.60;;;14.30;99.90;;;;;;5071434;28;20896;-65
2021/08/03 04:39:28;;;;;;;17.50;15.40;;;14.30;99.90;;;;;;5071049;28;20554;-65
2021/08/03 04:41:55;;;;;;;15.83;14.30;;;14.30;99.90;;;;;;5070929;28;20475;-64
2021/08/03 04:44:25;;;;;;;15.80;14.23;;;14.40;99.90;;;;;;5071335;28;20447;-65
2021/08/03 04:46:52;;;;;;;14.53;13.07;;;14.40;99.90;;;;;;5074570;28;20478;-65
2021/08/03 04:49:19;;;;;;;14.80;13.30;;;14.50;99.90;;;;;;5074672;28;20467;-65
2021/08/03 04:51:46;;;;;;;15.03;13.70;;;14.60;99.90;;;;;;5074653;28;20929;-65
2021/08/03 04:54:12;;;;;;;14.77;13.47;;;14.60;99.90;;;;;;5074397;28;20952;-65
2021/08/03 04:56:39;;;;;;;15.00;13.50;;;14.60;99.90;;;;;;5074736;28;21180;-64
2021/08/03 04:59:06;;;;;;;17.07;15.27;;;14.70;99.90;;;;;;5074380;28;20478;-64
2021/08/03 05:01:34;;;;;;;16.10;13.70;;;14.70;99.90;;;;;;5074627;28;20479;-64
2021/08/03 05:04:01;;;;;;;14.50;13.10;;;14.80;99.90;;;;;;5074837;28;20469;-64
2021/08/03 05:06:27;;;;;;;15.30;13.60;;;14.90;99.90;;;;;;5074375;28;20883;-64
2021/08/03 05:08:54;;;;;;;16.20;14.73;;;15.00;99.90;;;;;;5074403;28;20466;-64
2021/08/03 05:11:21;;;;;;;14.80;13.57;;;15.10;99.90;;;;;;5074007;28;20447;-64
2021/08/03 05:13:48;;;;;;;14.23;12.93;;;15.10;99.90;;;;;;5074572;28;20942;-64
2021/08/03 05:16:14;;;;;;;14.30;13.10;;;15.20;99.90;;;;;;5074289;28;20455;-64
2021/08/03 05:18:42;;;;;;;14.47;13.00;;;15.30;99.90;;;;;;5074333;28;20459;-65
2021/08/03 05:21:09;;;;;;;15.17;13.87;;;15.30;99.90;;;;;;5073830;28;20474;-64
2021/08/03 05:23:35;;;;;;;14.47;13.27;;;15.40;99.90;;;;;;5074153;28;20493;-64
2021/08/03 05:26:02;;;;;;;13.67;12.47;;;15.30;99.90;;;;;;5074218;28;20451;-64
2021/08/03 05:28:29;;;;;;;18.03;15.30;;;15.40;99.90;;;;;;5074354;28;20973;-63
2021/08/03 05:30:56;;;;;;;14.73;13.63;;;15.40;99.90;;;;;;5073851;28;20454;-64
2021/08/03 05:33:22;;;;;;;18.47;16.70;;;15.50;99.90;;;;;;5073932;28;20451;-64
2021/08/03 05:35:50;;;;;;;16.57;14.90;;;15.50;99.90;;;;;;5074353;28;20450;-64
2021/08/03 05:38:17;;;;;;;15.07;13.77;;;15.50;99.90;;;;;;5073729;28;20455;-64
2021/08/03 05:40:46;;;;;;;14.17;12.73;;;15.40;99.90;;;;;;5073825;28;20479;-64
2021/08/03 05:43:13;;;;;;;16.00;14.47;;;15.40;99.90;;;;;;5073458;28;20466;-64
2021/08/03 05:45:40;;;;;;;14.60;13.50;;;15.50;99.90;;;;;;5074046;28;20446;-64
2021/08/03 05:48:07;;;;;;;14.33;13.17;;;15.60;99.90;;;;;;5073455;28;20474;-64
2021/08/03 05:50:33;;;;;;;13.60;12.60;;;15.60;99.90;;;;;;5073887;28;20467;-63
2021/08/03 05:53:01;;;;;;;14.53;13.43;;;15.70;99.90;;;;;;5073497;28;20451;-64
2021/08/03 05:55:28;;;;;;;14.87;13.77;;;15.70;99.90;;;;;;5073560;28;20934;-64
2021/08/03 05:57:55;;;;;;;14.30;13.00;;;15.80;99.90;;;;;;5073559;28;20795;-63
2021/08/03 06:00:21;;;;;;;15.27;14.07;;;15.90;99.90;;;;;;5073322;28;20467;-61
2021/08/03 06:02:48;;;;;;;16.50;15.00;;;16.00;99.90;;;;;;5073061;28;20959;-64
2021/08/03 06:05:15;;;;;;;14.73;13.50;;;16.10;99.90;;;;;;5072902;28;20447;-64
2021/08/03 06:07:44;;;;;;;14.43;13.33;;;16.20;99.90;;;;;;5073808;28;20451;-64
2021/08/03 06:10:16;;;;;;;14.57;13.43;;;16.30;99.90;;;;;;5072998;28;20463;-64
2021/08/03 06:12:46;;;;;;;16.97;15.70;;;16.40;99.90;;;;;;5073243;28;20488;-64
2021/08/03 06:15:13;;;;;;;15.53;14.47;;;16.50;99.90;;;;;;5073296;28;20504;-64
2021/08/03 06:17:44;;;;;;;18.27;16.80;;;16.60;99.90;;;;;;5072846;28;20442;-64
2021/08/03 06:20:13;;;;;;;16.00;14.80;;;16.70;99.90;;;;;;5071044;28;20474;-63
2021/08/03 06:22:40;;;;;;;17.00;16.00;;;16.80;99.90;;;;;;5072687;28;20565;-63
2021/08/03 06:25:09;;;;;;;18.83;17.77;;;17.00;99.90;;;;;;5072825;28;20443;-64
2021/08/03 06:27:38;;;;;;;18.87;17.77;;;17.20;99.90;;;;;;5072753;28;20466;-64
2021/08/03 06:30:06;;;;;;;20.10;18.90;;;17.30;99.90;;;;;;5072091;28;20557;-64
2021/08/03 06:32:34;;;;;;;21.47;20.20;;;17.40;99.90;;;;;;5072404;28;20439;-64
2021/08/03 06:35:00;;;;;;;20.13;18.70;;;17.40;99.90;;;;;;5071474;28;20841;-64
2021/08/03 06:37:27;;;;;;;22.10;20.70;;;17.50;99.90;;;;;;5071028;28;20482;-64
2021/08/03 06:39:54;;;;;;;21.70;20.50;;;17.50;99.90;;;;;;5071202;28;20890;-63
2021/08/03 06:42:32;;;;;;;19.43;18.43;;;17.60;99.90;;;;;;5070950;28;20479;-64
2021/08/03 06:45:03;;;;;;;20.60;19.30;;;17.60;99.90;;;;;;5071292;28;20831;-63
2021/08/03 06:47:44;;;;;;;22.03;20.83;;;17.60;99.90;;;;;;5071164;28;20444;-64
2021/08/03 06:50:13;;;;;;;23.27;21.20;;;17.60;99.90;;;;;;5072259;28;20542;-64
2021/08/03 06:52:40;;;;;;;21.20;20.10;;;17.70;99.90;;;;;;5073245;28;20439;-64
2021/08/03 06:55:08;;;;;;;21.60;20.30;;;17.60;99.90;;;;;;5073104;28;20452;-64
2021/08/03 06:57:40;;;;;;;21.80;20.70;;;17.60;99.90;;;;;;5073105;28;20450;-64
2021/08/03 07:00:10;;;;;;;21.73;20.63;;;17.50;99.90;;;;;;5073058;28;20470;-64
2021/08/03 07:02:41;;;;;;;21.97;20.60;;;17.50;99.90;;;;;;5072782;28;20475;-63
2021/08/03 07:05:09;;;;;;;22.90;21.30;;;17.50;99.90;;;;;;5072956;28;20861;-63
2021/08/03 07:07:37;;;;;;;20.60;19.60;;;17.50;99.90;;;;;;5072402;28;20502;-63
2021/08/03 07:10:06;;;;;;;20.83;19.83;;;17.50;99.90;;;;;;5072837;28;20491;-63
2021/08/03 07:12:33;;;;;;;22.57;21.00;;;17.40;99.90;;;;;;5072523;28;20439;-63
2021/08/03 07:15:00;;;;;;;21.90;20.53;;;17.40;99.90;;;;;;5072508;28;20450;-63
2021/08/03 07:17:31;;;;;;;20.90;19.70;;;17.40;99.90;;;;;;5072662;28;20443;-64
2021/08/03 07:19:58;;;;;;;21.50;20.10;;;17.40;99.90;;;;;;5072494;28;20492;-64
2021/08/03 07:22:26;;;;;;;21.73;20.13;;;17.40;99.90;;;;;;5072314;28;20510;-63
2021/08/03 07:24:53;;;;;;;24.77;20.83;;;17.40;99.90;;;;;;5072591;28;20470;-63
2021/08/03 07:27:21;;;;;;;22.00;20.80;;;17.50;99.90;;;;;;5072627;28;20444;-63
2021/08/03 07:29:47;;;;;;;20.83;19.83;;;17.50;99.90;;;;;;5072338;28;20463;-63
2021/08/03 07:32:14;;;;;;;23.10;21.17;;;17.60;99.90;;;;;;5072194;28;20443;-64
2021/08/03 07:34:43;;;;;;;21.17;19.97;;;17.50;99.90;;;;;;5072421;28;20444;-63
2021/08/03 07:37:10;;;;;;;22.10;20.73;;;17.50;99.90;;;;;;5072313;28;20448;-63
2021/08/03 07:39:39;;;;;;;21.30;20.10;;;17.50;99.90;;;;;;5072055;28;20506;-63
2021/08/03 07:42:07;;;;;;;22.13;20.80;;;17.40;99.90;;;;;;5071954;28;20482;-64
2021/08/03 07:44:34;;;;;;;20.23;19.23;;;17.50;99.90;;;;;;5072030;28;20809;-63
2021/08/03 07:47:01;;;;;;;21.00;19.90;;;17.60;99.90;;;;;;5071897;28;20451;-64
2021/08/03 07:49:28;;;;;;;20.90;19.70;;;17.70;99.90;;;;;;5071956;28;20470;-65
2021/08/03 07:51:57;;;;;;;21.33;20.20;;;17.90;99.90;;;;;;5071608;28;20922;-64
2021/08/03 07:54:24;;;;;;;22.00;20.80;;;18.10;99.90;;;;;;5072092;28;20479;-64
2021/08/03 07:56:51;;;;;;;20.57;19.43;;;18.20;99.90;;;;;;5071992;28;20443;-65
2021/08/03 07:59:17;;;;;;;21.67;20.47;;;18.30;99.90;;;;;;5071759;28;20989;-64
2021/08/03 08:01:44;;;;;;;22.63;21.33;;;18.40;99.90;;;;;;5071441;28;20841;-64
2021/08/03 08:04:11;;;;;;;21.97;20.87;;;18.40;99.90;;;;;;5071905;28;20447;-64
2021/08/03 08:06:37;;;;;;;22.67;20.80;;;18.50;99.90;;;;;;5071312;28;20447;-63
2021/08/03 08:09:05;;;;;;;21.23;20.10;;;18.70;99.90;;;;;;5071341;28;20491;-64
2021/08/03 08:11:32;;;;;;;21.80;20.60;;;18.80;99.90;;;;;;5070320;28;20456;-64
2021/08/03 08:13:59;;;;;;;22.30;21.20;;;18.90;99.90;;;;;;5069929;28;20443;-64
2021/08/03 08:16:26;;;;;;;21.83;20.63;;;19.10;99.90;;;;;;5070454;28;20439;-64
2021/08/03 08:18:52;;;;;;;23.73;22.30;;;19.50;99.90;;;;;;5070256;28;20489;-64
2021/08/03 08:21:19;;;;;;;21.50;20.50;;;19.70;99.90;;;;;;5069335;28;20482;-64
2021/08/03 08:23:46;;;;;;;24.03;22.77;;;19.90;99.90;;;;;;5070325;28;20439;-64
2021/08/03 08:26:14;;;;;;;23.17;21.80;;;20.00;99.90;;;;;;5070421;28;20439;-64
2021/08/03 08:28:40;;;;;;;21.17;20.17;;;20.00;99.90;;;;;;5070872;28;20467;-64
2021/08/03 08:31:07;;;;;;;22.97;21.77;;;20.10;99.90;;;;;;5071160;28;20447;-64
2021/08/03 08:33:34;;;;;;;24.37;23.07;;;20.20;99.90;;;;;;5071311;28;20440;-64
2021/08/03 08:36:00;;;;;;;21.33;20.33;;;20.40;99.90;;;;;;5071253;28;20446;-64
2021/08/03 08:38:27;;;;;;;21.63;20.53;;;20.80;99.90;;;;;;5070975;28;20450;-64
2021/08/03 08:40:55;;;;;;;22.93;21.60;;;21.30;99.90;;;;;;5071132;28;20447;-63
2021/08/03 08:43:24;;;;;;;22.87;21.43;;;21.70;99.90;;;;;;5071027;28;20838;-64
2021/08/03 08:45:55;;;;;;;22.70;21.10;;;22.30;99.90;;;;;;5071213;28;20458;-64
2021/08/03 08:48:22;;;;;;;22.20;21.00;;;22.60;99.90;;;;;;5071069;28;20962;-64
2021/08/03 08:50:53;;;;;;;20.70;19.80;;;23.00;99.90;;;;;;5071162;28;20475;-64
2021/08/03 08:53:21;;;;;;;21.63;20.73;;;23.40;99.70;;;;;;5071026;28;20431;-64
2021/08/03 08:55:47;;;;;;;20.40;19.60;;;23.50;97.10;;;;;;5071141;28;20843;-64
2021/08/03 08:58:14;;;;;;;21.17;20.20;;;23.70;95.80;;;;;;5070956;28;20435;-64
2021/08/03 09:00:42;;;;;;;21.00;20.10;;;23.50;92.70;;;;;;5070907;28;20447;-64
2021/08/03 09:03:09;;;;;;;20.37;19.57;;;23.20;92.70;;;;;;5070771;28;20554;-64
2021/08/03 09:05:37;;;;;;;22.43;21.33;;;23.50;92.50;;;;;;5070903;28;20443;-64
2021/08/03 09:08:06;;;;;;;21.43;20.13;;;23.80;91.90;;;;;;5070965;28;20512;-64
2021/08/03 09:10:36;;;;;;;21.17;20.00;;;24.00;89.50;;;;;;5070804;28;20463;-64
2021/08/03 09:13:05;;;;;;;20.90;20.07;;;23.80;89.30;;;;;;5070701;28;20442;-64
2021/08/03 09:15:34;;;;;;;21.40;20.40;;;23.70;86.60;;;;;;5070895;28;20443;-64
2021/08/03 09:18:17;;;;;;;20.60;19.80;;;23.60;86.40;;;;;;5070828;28;20488;-64
2021/08/03 09:20:46;;;;;;;20.53;19.60;;;23.80;85.40;;;;;;5070944;28;20447;-64
2021/08/03 09:23:14;;;;;;;19.80;19.00;;;23.80;85.70;;;;;;5070594;28;20853;-64
2021/08/03 09:25:52;;;;;;;19.80;19.00;;;24.00;84.30;;;;;;5070696;28;20439;-64
2021/08/03 09:28:19;;;;;;;20.33;19.43;;;23.90;84.50;;;;;;5070661;28;20450;-64
2021/08/03 09:30:46;;;;;;;20.83;19.93;;;24.00;83.60;;;;;;5070743;28;20450;-63
2021/08/03 09:33:23;;;;;;;19.57;18.87;;;23.90;85.80;;;;;;5074404;28;20431;-63
2021/08/03 09:35:51;;;;;;;21.13;20.13;;;23.90;83.30;;;;;;5074453;28;20451;-64
2021/08/03 09:38:19;;;;;;;20.57;19.57;;;23.70;84.10;;;;;;5074112;28;20452;-64
2021/08/03 09:40:46;;;;;;;20.20;19.40;;;23.60;84.10;;;;;;5081558;22;20594;-64
2021/08/03 09:43:16;;;;;;;20.53;19.60;;;23.60;85.60;;;;;;5053928;28;20483;-64
2021/08/03 09:46:00;;;;;;;19.83;19.03;;;23.40;84.50;;;;;;5054382;28;20447;-64
2021/08/03 09:48:29;;;;;;;19.77;18.97;;;23.20;88.40;;;;;;5054336;28;20448;-63
2021/08/03 09:51:05;;;;;;;20.30;19.40;;;23.60;89.30;;;;;;5073427;28;20463;-64
2021/08/03 09:53:45;;;;;;;20.13;19.17;;;24.10;84.70;;;;;;5073991;28;20438;-64
2021/08/03 09:56:14;;;;;;;20.70;19.80;;;24.40;83.00;;;;;;5074072;28;20443;-63
2021/08/03 09:59:05;;;;;;;21.37;20.43;;;24.80;81.90;;;;;;5073940;28;20742;-64
2021/08/03 10:01:34;;;;;;;20.30;19.30;;;25.20;77.30;;;;;;5063501;28;20448;-64
2021/08/03 10:04:04;;;;;;;19.83;18.80;;;25.40;76.30;;;;;;5073928;28;20487;-64
2021/08/03 10:06:33;;;;;;;20.17;19.37;;;25.40;73.80;;;;;;5073939;28;20949;-64
2021/08/03 10:09:00;;;;;;;21.33;20.13;;;25.40;72.00;;;;;;5073797;28;20463;-64
2021/08/03 10:11:27;;;;;;;20.67;19.77;;;25.30;71.60;;;;;;5073687;28;20451;-63
2021/08/03 10:13:55;;;;;;;20.03;19.23;;;25.40;68.80;;;;;;5073755;28;20466;-63
2021/08/03 10:16:23;;;;;;;20.00;19.13;;;25.00;70.90;;;;;;5073810;28;20447;-64
2021/08/03 10:18:51;;;;;;;20.00;19.20;;;25.20;68.70;;;;;;5073719;28;21009;-64
2021/08/03 10:21:33;;;;;;;20.73;19.63;;;25.20;67.10;;;;;;5073356;28;20439;-64
2021/08/03 10:24:10;;;;;;;19.87;19.07;;;25.30;64.40;;;;;;5073513;28;20482;-64
2021/08/03 10:26:36;;;;;;;18.97;18.17;;;25.10;65.20;;;;;;5073500;28;20435;-64
2021/08/03 10:29:23;;;;;;;20.33;19.40;;;25.20;66.90;;;;;;5073560;28;20459;-64
2021/08/03 10:31:51;;;;;;;21.07;19.93;;;25.00;66.70;;;;;;5073266;28;20450;-64
2021/08/03 10:34:55;;;;;;;19.50;18.80;;;25.10;67.80;;;;;;5073370;28;20439;-64
2021/08/03 10:37:25;;;;;;;20.93;20.13;;;24.90;66.00;;;;;;5073487;28;20443;-64
2021/08/03 10:39:53;;;;;;;19.50;18.70;;;24.90;64.20;;;;;;5073037;28;20515;-64
2021/08/03 10:42:21;;;;;;;19.60;18.90;;;24.90;67.20;;;;;;5072456;28;20474;-64
2021/08/03 10:44:49;;;;;;;19.53;18.63;;;24.60;68.10;;;;;;5072793;28;20443;-64
2021/08/03 10:47:48;;;;;;;19.90;18.90;;;24.30;68.40;;;;;;5073148;28;20447;-64
2021/08/03 10:50:26;;;;;;;18.80;18.20;;;24.00;67.80;;;;;;5073075;28;20463;-63
2021/08/03 10:52:56;;;;;;;20.27;19.27;;;24.30;69.40;;;;;;5073006;28;20450;-64
2021/08/03 10:55:43;;;;;;;19.50;18.60;;;25.00;69.20;;;;;;5073047;28;20447;-64
2021/08/03 10:58:23;;;;;;;20.77;19.47;;;25.30;69.10;;;;;;5073000;28;20439;-62
2021/08/03 11:00:52;;;;;;;19.20;18.50;;;25.60;65.30;;;;;;5072828;28;20467;-64
2021/08/03 11:03:44;;;;;;;20.90;20.00;;;25.50;65.00;;;;;;5072750;28;20483;-63
2021/08/03 11:06:36;;;;;;;21.00;20.10;;;25.10;68.20;;;;;;5072836;28;20469;-64
2021/08/03 11:09:33;;;;;;;20.33;19.37;;;24.90;71.20;;;;;;5072631;28;20827;-63
2021/08/03 11:12:39;;;;;;;19.70;19.00;;;24.30;74.30;;;;;;5072310;28;20447;-63
2021/08/03 11:15:40;;;;;;;20.37;19.57;;;23.90;78.30;;;;;;5060944;28;20447;-63
2021/08/03 11:18:10;;;;;;;21.07;20.17;;;23.80;79.10;;;;;;5072562;28;20443;-62
2021/08/03 11:21:13;;;;;;;19.90;19.10;;;23.70;80.50;;;;;;5072398;28;20834;-62
2021/08/03 11:23:59;;;;;;;20.00;19.10;;;23.40;80.80;;;;;;5072205;28;20506;-62
2021/08/03 11:26:28;;;;;;;19.03;18.33;;;23.30;83.70;;;;;;5072710;28;20447;-64
2021/08/03 11:28:57;;;;;;;19.00;18.40;;;23.00;83.70;;;;;;5072718;28;20493;-64
2021/08/03 11:31:37;;;;;;;20.10;19.30;;;22.60;84.50;;;;;;5070903;28;20435;-64
2021/08/03 11:34:04;;;;;;;20.00;19.30;;;22.40;87.50;;;;;;5071326;28;20956;-63
2021/08/03 11:36:31;;;;;;;19.83;19.13;;;22.40;90.20;;;;;;5064087;28;20439;-62
2021/08/03 11:38:58;;;;;;;19.13;18.30;;;22.30;90.40;;;;;;5071620;28;20479;-63
2021/08/03 11:41:24;;;;;;;18.63;17.93;;;22.10;90.80;;;;;;5071121;28;20446;-63
2021/08/03 11:43:53;;;;;;;18.90;18.30;;;22.10;91.90;;;;;;5071663;28;20471;-63
2021/08/03 11:46:25;;;;;;;19.13;18.43;;;22.50;92.20;;;;;;5071572;28;20881;-63
2021/08/03 11:49:02;;;;;;;18.80;18.20;;;22.80;91.80;;;;;;5071450;28;20435;-63
2021/08/03 11:51:35;;;;;;;19.37;18.67;;;22.70;91.80;;;;;;5071176;28;20549;-64
2021/08/03 11:54:12;;;;;;;20.60;19.90;;;22.90;92.80;;;;;;5071319;28;20867;-63
2021/08/03 11:56:38;;;;;;;19.33;18.63;;;22.90;92.50;;;;;;5064842;28;20443;-62
2021/08/03 11:59:06;;;;;;;19.47;18.60;;;23.00;92.70;;;;;;5071126;28;20471;-64
2021/08/03 12:01:49;;;;;;;19.10;18.40;;;23.20;93.80;;;;;;5063758;28;20443;-64
2021/08/03 12:04:18;;;;;;;19.33;18.63;;;23.00;93.10;;;;;;5070993;28;20475;-64
2021/08/03 12:06:45;;;;;;;17.87;17.27;;;22.90;92.40;;;;;;5071435;28;20447;-63
2021/08/03 12:09:12;;;;;;;19.50;18.80;;;23.40;90.60;;;;;;5071029;28;20504;-62
2021/08/03 12:11:40;;;;;;;18.33;17.73;;;24.00;89.60;;;;;;5070741;28;20446;-64
2021/08/03 12:14:13;;;;;;;19.83;19.13;;;24.90;86.10;;;;;;5070437;28;20526;-64
2021/08/03 12:16:42;;;;;;;19.87;19.17;;;25.90;80.20;;;;;;5071029;28;20444;-64
2021/08/03 12:19:27;;;;;;;20.07;19.27;;;27.20;74.10;;;;;;5070973;28;20546;-63
2021/08/03 12:21:54;;;;;;;20.07;19.17;;;28.30;67.40;;;;;;5070851;28;20443;-63
2021/08/03 12:24:20;;;;;;;20.37;19.67;;;28.50;62.20;;;;;;5070909;28;20501;-63
2021/08/03 12:26:47;;;;;;;20.40;19.63;;;28.50;60.50;;;;;;5071151;28;20535;-63
2021/08/03 12:29:32;;;;;;;21.30;20.20;;;27.90;60.30;;;;;;5070699;28;20469;-63
2021/08/03 12:31:59;;;;;;;20.40;19.70;;;27.40;61.80;;;;;;5070827;28;20914;-64
2021/08/03 12:34:34;;;;;;;19.50;18.80;;;28.20;60.30;;;;;;5070859;28;20435;-65
2021/08/03 12:37:01;;;;;;;20.17;19.47;;;28.70;59.10;;;;;;5070964;28;20473;-62
2021/08/03 12:39:37;;;;;;;21.33;20.63;;;30.10;55.80;;;;;;5070635;28;20470;-64
2021/08/03 12:42:10;;;;;;;21.33;20.33;;;30.60;53.30;;;;;;5070540;28;20454;-64